Lyons, New Jersey
Current Conditions -  °F | °C
As of 4:21 PM on Wednesday 26 Nov 2014 (Local Time) from KSMQ Reporting Station
Light Snow Light Snow  
Wind Chill: 28°   Ceiling: 1800
Heat Index: 34°   Visibility: 4mi
Dew Point: 31°   Wind: 7mph
Humidity: 89%   Direction: 340°NNW
Pressure: 29.81"   Gusts: NA
Location:  40.69°N, 74.55°W
Report Text: KSMQ 262121Z AUTO 34006KT 4SM -SN BR OVC018 01/M01 A2981 RMK AO2 P0002 T00111006
Loading
Personal Weather Stations






























Interactive Weather Map New forecast layout! Learn more

10-Day Weather Forecast

Advertisements
Track Severe Weather on mobile